Clarendon Springs, Vermont
Current Conditions -  °F | °C
As of 9:55 PM on Friday 21 Nov 2014 (Local Time) from KRUT Reporting Station
Overcast Overcast  
Wind Chill: 21°   Ceiling: 5000
Heat Index: 21°   Visibility: 10mi
Dew Point:   Wind: 0mph
Humidity: 54%   Direction: NA
Pressure: 30.35"   Gusts: NA
Location:  43.5746°N, 73.0567°W
Report Text: KRUT 220255Z 00000KT 10SM OVC050 M06/M14 A3035 RMK AO1 52003
Loading
Personal Weather Stations






























Interactive Weather Map New forecast layout! Learn more

10-Day Weather Forecast

Advertisements
Track Severe Weather on mobile